Time;durP1;ratioP1;P1;durP2;ratioP2;P2;SDS_P1;SDS_P2;PMS_P1;PMS_P2;Temp;Humidity;BMP_temperature;BMP_pressure;BME280_temperature;BME280_humidity;BME280_pressure;Samples;Min_cycle;Max_cycle;Signal;HPM_P1;HPM_P2
2022/08/25 00:01:26;;;;;;;4.87;2.90;;;19.50;99.90;;;;;;4376294;32;20108;-69
2022/08/25 00:03:54;;;;;;;4.10;2.85;;;19.50;99.90;;;;;;4379893;32;20107;-69
2022/08/25 00:06:21;;;;;;;3.60;2.65;;;19.50;99.90;;;;;;4383771;32;19964;-70
2022/08/25 00:08:49;;;;;;;5.18;3.40;;;19.20;99.90;;;;;;4384587;32;19996;-69
2022/08/25 00:11:18;;;;;;;6.03;2.60;;;19.50;99.90;;;;;;4378562;32;20167;-68
2022/08/25 00:13:50;;;;;;;5.03;3.53;;;19.60;99.90;;;;;;4385779;32;19967;-68
2022/08/25 00:16:19;;;;;;;4.50;2.62;;;19.60;99.90;;;;;;4385613;32;19991;-68
2022/08/25 00:18:48;;;;;;;3.92;2.47;;;19.50;99.90;;;;;;4379634;32;20007;-68
2022/08/25 00:21:16;;;;;;;3.90;2.55;;;19.60;99.90;;;;;;4383887;32;20047;-68
2022/08/25 00:23:44;;;;;;;4.07;2.70;;;19.50;99.90;;;;;;4386207;32;20103;-68
2022/08/25 00:26:11;;;;;;;3.85;2.40;;;19.50;99.90;;;;;;4382946;32;19975;-69
2022/08/25 00:28:38;;;;;;;4.03;2.53;;;19.50;99.90;;;;;;4383465;32;20001;-68
2022/08/25 00:31:10;;;;;;;3.85;2.72;;;19.70;99.90;;;;;;4383726;32;20027;-68
2022/08/25 00:33:37;;;;;;;3.25;2.65;;;19.50;99.90;;;;;;4385445;32;19991;-68
2022/08/25 00:36:05;;;;;;;3.33;2.72;;;19.40;99.90;;;;;;4382856;32;19966;-69
2022/08/25 00:38:31;;;;;;;4.85;2.90;;;19.40;99.90;;;;;;4381504;32;19967;-68
2022/08/25 00:41:07;;;;;;;3.45;2.28;;;19.00;99.90;;;;;;4385465;32;20046;-68
2022/08/25 00:43:44;;;;;;;3.95;2.78;;;19.00;99.90;;;;;;4373533;32;20132;-68
2022/08/25 00:46:18;;;;;;;4.10;2.50;;;19.00;99.90;;;;;;4370733;32;20109;-69
2022/08/25 00:48:49;;;;;;;4.45;3.20;;;19.30;99.90;;;;;;4388658;32;19966;-68
2022/08/25 00:51:27;;;;;;;3.93;2.47;;;19.30;99.90;;;;;;4388239;32;19993;-68
2022/08/25 00:53:54;;;;;;;4.68;2.70;;;19.30;99.90;;;;;;4378793;32;20000;-68
2022/08/25 00:56:21;;;;;;;4.12;2.60;;;19.30;99.90;;;;;;4383739;32;19964;-69
2022/08/25 00:58:48;;;;;;;3.65;2.47;;;19.20;99.90;;;;;;4383280;32;19959;-68
2022/08/25 01:01:16;;;;;;;5.40;2.90;;;18.80;99.90;;;;;;4386506;32;19966;-69
2022/08/25 01:03:42;;;;;;;4.12;2.65;;;18.80;99.90;;;;;;4382302;32;20000;-68
2022/08/25 01:06:10;;;;;;;4.00;2.90;;;18.80;99.90;;;;;;4381268;32;19992;-68
2022/08/25 01:08:38;;;;;;;3.87;2.80;;;19.10;99.90;;;;;;4377585;32;19959;-68
2022/08/25 01:11:08;;;;;;;3.92;2.60;;;19.20;99.90;;;;;;4376868;32;20052;-69
2022/08/25 01:13:38;;;;;;;4.28;2.87;;;19.40;99.90;;;;;;4388216;32;19977;-69
2022/08/25 01:16:05;;;;;;;4.00;2.25;;;19.40;99.90;;;;;;4372234;32;19990;-68
2022/08/25 01:18:46;;;;;;;3.22;2.40;;;19.40;99.90;;;;;;4377824;32;19961;-69
2022/08/25 01:21:16;;;;;;;3.17;2.37;;;19.20;99.90;;;;;;4385468;32;19995;-69
2022/08/25 01:23:43;;;;;;;3.97;2.35;;;19.30;99.90;;;;;;4368277;32;19959;-68
2022/08/25 01:26:14;;;;;;;3.35;2.60;;;19.40;99.90;;;;;;4382907;32;20001;-69
2022/08/25 01:31:24;;;;;;;4.50;2.67;;;19.30;99.90;;;;;;4376777;32;20025;-69
2022/08/25 01:33:51;;;;;;;3.85;2.58;;;19.20;99.90;;;;;;4384692;32;20014;-70
2022/08/25 01:36:19;;;;;;;3.58;2.47;;;19.10;99.90;;;;;;4386141;32;19990;-69
2022/08/25 01:38:46;;;;;;;3.85;2.30;;;19.20;99.90;;;;;;4376820;32;19980;-69
2022/08/25 01:41:12;;;;;;;3.53;2.45;;;19.20;99.90;;;;;;4385516;32;19987;-69
2022/08/25 01:43:39;;;;;;;4.78;2.80;;;19.20;99.90;;;;;;4386293;32;19994;-69
2022/08/25 01:46:06;;;;;;;4.12;2.50;;;19.20;99.90;;;;;;4385846;32;20068;-69
2022/08/25 01:48:33;;;;;;;3.75;2.70;;;19.10;99.90;;;;;;4379891;32;19988;-69
2022/08/25 01:51:00;;;;;;;4.43;2.45;;;19.10;99.90;;;;;;4376197;32;19962;-69
2022/08/25 01:53:30;;;;;;;4.40;2.75;;;19.10;99.90;;;;;;4385521;32;20019;-69
2022/08/25 01:56:00;;;;;;;4.12;2.50;;;19.10;99.90;;;;;;4389295;32;19979;-69
2022/08/25 01:58:30;;;;;;;3.35;2.70;;;19.00;99.90;;;;;;4378404;32;19998;-69
2022/08/25 02:01:00;;;;;;;3.62;2.60;;;19.00;99.90;;;;;;4388095;32;20007;-69
2022/08/25 02:03:28;;;;;;;5.97;2.95;;;18.90;99.90;;;;;;4382263;32;19977;-69
2022/08/25 02:05:56;;;;;;;2.95;2.60;;;18.80;99.90;;;;;;4378734;32;19987;-69
2022/08/25 02:08:23;;;;;;;3.65;2.90;;;18.80;99.90;;;;;;4382927;32;20036;-70
2022/08/25 02:10:51;;;;;;;4.57;2.53;;;18.60;99.90;;;;;;4377459;32;19966;-69
2022/08/25 02:13:19;;;;;;;4.10;2.60;;;18.40;99.90;;;;;;4378622;32;19997;-69
2022/08/25 02:15:49;;;;;;;5.95;2.72;;;18.50;99.90;;;;;;4391605;32;20008;-69
2022/08/25 02:18:16;;;;;;;3.80;2.30;;;18.60;99.90;;;;;;4378613;32;20013;-69
2022/08/25 02:20:43;;;;;;;3.87;2.50;;;18.60;99.90;;;;;;4386595;32;19964;-69
2022/08/25 02:23:10;;;;;;;4.15;2.95;;;18.70;99.90;;;;;;4385006;32;20001;-69
2022/08/25 02:25:38;;;;;;;4.50;3.20;;;18.70;99.90;;;;;;4372515;33;19990;-69
2022/08/25 02:28:08;;;;;;;3.62;3.03;;;18.80;99.90;;;;;;4392491;32;20022;-69
2022/08/25 02:30:35;;;;;;;6.30;5.53;;;18.90;99.90;;;;;;4384562;32;20790;-69
2022/08/25 02:33:02;;;;;;;17.10;12.15;;;18.80;99.90;;;;;;4392484;32;19989;-69
2022/08/25 02:35:28;;;;;;;16.48;14.63;;;18.80;99.90;;;;;;4391579;32;19989;-69
2022/08/25 02:37:57;;;;;;;18.50;15.45;;;18.80;99.90;;;;;;4388895;32;20053;-69
2022/08/25 02:40:24;;;;;;;16.73;14.40;;;18.80;99.90;;;;;;4382411;32;19989;-69
2022/08/25 02:42:51;;;;;;;18.20;15.50;;;18.70;99.90;;;;;;4384031;32;20000;-69
2022/08/25 02:45:19;;;;;;;18.33;16.33;;;18.60;99.90;;;;;;4381071;32;19995;-69
2022/08/25 02:47:46;;;;;;;16.48;13.43;;;18.50;99.90;;;;;;4381515;32;19971;-69
2022/08/25 02:50:13;;;;;;;18.10;14.98;;;18.40;99.90;;;;;;4384407;32;19966;-69
2022/08/25 02:52:40;;;;;;;17.27;13.25;;;18.50;99.90;;;;;;4383692;32;20020;-69
2022/08/25 02:55:11;;;;;;;14.52;11.98;;;18.50;99.90;;;;;;4382422;32;20116;-70
2022/08/25 02:57:38;;;;;;;10.98;8.80;;;18.40;99.90;;;;;;4388734;32;19971;-69
2022/08/25 03:00:06;;;;;;;8.73;5.97;;;18.40;99.90;;;;;;4377799;32;19962;-69
2022/08/25 03:02:34;;;;;;;8.65;5.97;;;18.40;99.90;;;;;;4388678;32;20035;-69
2022/08/25 03:05:00;;;;;;;6.03;5.15;;;18.40;99.90;;;;;;4386979;32;20046;-69
2022/08/25 03:07:28;;;;;;;5.22;3.90;;;18.50;99.90;;;;;;4390272;32;19984;-69
2022/08/25 03:09:55;;;;;;;4.18;3.15;;;18.40;99.90;;;;;;4391354;32;19980;-70
2022/08/25 03:12:22;;;;;;;4.65;2.97;;;18.30;99.90;;;;;;4389671;32;20015;-70
2022/08/25 03:14:48;;;;;;;4.55;2.95;;;18.40;99.90;;;;;;4384411;32;20109;-69
2022/08/25 03:17:15;;;;;;;4.05;3.10;;;18.30;99.90;;;;;;4382267;32;19979;-69
2022/08/25 03:19:43;;;;;;;4.80;2.90;;;18.30;99.90;;;;;;4385204;32;20126;-70
2022/08/25 03:22:10;;;;;;;5.10;2.75;;;18.40;99.90;;;;;;4383624;32;19966;-69
2022/08/25 03:24:36;;;;;;;3.58;2.65;;;18.60;99.90;;;;;;4377676;32;20022;-69
2022/08/25 03:27:03;;;;;;;3.85;3.00;;;18.50;99.90;;;;;;4376721;32;20019;-70
2022/08/25 03:29:32;;;;;;;2.92;2.50;;;18.40;99.90;;;;;;4380863;32;19955;-69
2022/08/25 03:31:59;;;;;;;4.35;2.75;;;18.40;99.90;;;;;;4390838;32;19989;-69
2022/08/25 03:34:28;;;;;;;4.05;2.78;;;18.30;99.90;;;;;;4380205;32;19976;-70
2022/08/25 03:36:57;;;;;;;3.85;2.90;;;18.20;99.90;;;;;;4384654;32;19966;-69
2022/08/25 03:39:26;;;;;;;4.20;2.95;;;18.10;99.90;;;;;;4387801;32;19973;-69
2022/08/25 03:41:53;;;;;;;4.00;3.00;;;18.00;99.90;;;;;;4382118;32;20024;-69
2022/08/25 03:44:21;;;;;;;4.68;2.72;;;18.00;99.90;;;;;;4381433;32;19960;-69
2022/08/25 03:46:50;;;;;;;4.57;3.10;;;18.00;99.90;;;;;;4382494;32;20000;-70
2022/08/25 03:49:22;;;;;;;4.68;3.15;;;18.00;99.90;;;;;;4387780;32;20092;-69
2022/08/25 03:51:51;;;;;;;4.03;2.90;;;18.10;99.90;;;;;;4382251;32;19967;-69
2022/08/25 03:54:22;;;;;;;4.30;2.70;;;18.10;99.90;;;;;;4382201;32;20001;-69
2022/08/25 03:56:49;;;;;;;5.47;3.25;;;18.10;99.90;;;;;;4374299;32;19998;-69
2022/08/25 03:59:16;;;;;;;3.65;2.78;;;18.10;99.90;;;;;;4389156;32;19990;-70
2022/08/25 04:01:44;;;;;;;4.22;2.87;;;18.10;99.90;;;;;;4376416;32;19966;-69
2022/08/25 04:04:13;;;;;;;3.92;3.00;;;18.00;99.90;;;;;;4382080;32;19962;-69
2022/08/25 04:06:41;;;;;;;4.85;2.78;;;17.90;99.90;;;;;;4379802;32;19966;-69
2022/08/25 04:09:09;;;;;;;5.85;3.17;;;17.90;99.90;;;;;;4378333;32;20024;-69
2022/08/25 04:11:37;;;;;;;5.20;3.15;;;17.80;99.90;;;;;;4384109;32;19964;-69
2022/08/25 04:14:04;;;;;;;4.65;3.10;;;17.80;99.90;;;;;;4380521;32;19996;-69
2022/08/25 04:16:33;;;;;;;5.22;3.03;;;17.80;99.90;;;;;;4387832;32;19972;-69
2022/08/25 04:19:02;;;;;;;4.82;3.33;;;17.70;99.90;;;;;;4387125;32;20030;-69
2022/08/25 04:21:30;;;;;;;4.22;3.15;;;17.70;99.90;;;;;;4385654;32;19992;-70
2022/08/25 04:23:57;;;;;;;3.58;2.70;;;17.90;99.90;;;;;;4382663;32;19985;-70
2022/08/25 04:26:26;;;;;;;3.53;2.90;;;17.80;99.90;;;;;;4383678;32;19970;-70
2022/08/25 04:28:54;;;;;;;4.45;3.12;;;17.90;99.90;;;;;;4384040;32;19998;-70
2022/08/25 04:31:21;;;;;;;6.55;3.62;;;17.80;99.90;;;;;;4384990;32;19967;-69
2022/08/25 04:33:49;;;;;;;4.53;3.15;;;17.70;99.90;;;;;;4374130;32;19983;-69
2022/08/25 04:36:17;;;;;;;4.28;3.15;;;17.70;99.90;;;;;;4383148;32;19994;-70
2022/08/25 04:38:45;;;;;;;5.75;2.97;;;17.60;99.90;;;;;;4381549;32;19992;-69
2022/08/25 04:41:15;;;;;;;5.78;3.28;;;17.70;99.90;;;;;;4385708;32;19964;-69
2022/08/25 04:43:43;;;;;;;4.12;3.00;;;17.70;99.90;;;;;;4382388;32;19961;-70
2022/08/25 04:46:13;;;;;;;4.90;3.33;;;17.50;99.90;;;;;;4378147;32;19973;-69
2022/08/25 04:48:40;;;;;;;4.70;3.22;;;17.60;99.90;;;;;;4381107;32;19989;-69
2022/08/25 04:51:09;;;;;;;5.90;3.00;;;17.60;99.90;;;;;;4386910;32;20027;-69
2022/08/25 04:53:36;;;;;;;5.35;3.47;;;17.60;99.90;;;;;;4388739;32;19999;-68
2022/08/25 04:56:06;;;;;;;5.32;3.60;;;17.40;99.90;;;;;;4380082;32;20027;-68
2022/08/25 04:58:33;;;;;;;6.90;3.20;;;17.50;99.90;;;;;;4379415;32;20127;-68
2022/08/25 05:01:02;;;;;;;5.62;3.12;;;17.70;99.90;;;;;;4375531;32;20004;-67
2022/08/25 05:03:31;;;;;;;5.70;3.55;;;17.80;99.90;;;;;;4377273;32;20013;-70
2022/08/25 05:05:58;;;;;;;4.47;3.12;;;18.00;99.90;;;;;;4382382;32;20248;-69
2022/08/25 05:08:24;;;;;;;4.68;2.70;;;18.10;99.90;;;;;;4383277;32;20011;-69
2022/08/25 05:10:53;;;;;;;4.30;2.80;;;17.90;99.90;;;;;;4385952;32;20047;-70
2022/08/25 05:13:20;;;;;;;4.07;2.70;;;18.00;99.90;;;;;;4382665;32;19962;-70
2022/08/25 05:15:52;;;;;;;5.40;3.10;;;18.10;99.90;;;;;;4387222;32;20110;-70
2022/08/25 05:18:21;;;;;;;4.93;2.50;;;18.20;99.90;;;;;;4377105;32;20082;-69
2022/08/25 05:20:50;;;;;;;3.72;2.97;;;18.10;99.90;;;;;;4383167;32;19986;-69
2022/08/25 05:23:16;;;;;;;5.32;2.80;;;18.10;99.90;;;;;;4379122;32;20016;-70
2022/08/25 05:25:43;;;;;;;6.28;3.12;;;18.10;99.90;;;;;;4382438;32;19979;-69
2022/08/25 05:28:11;;;;;;;5.05;2.70;;;18.20;99.90;;;;;;4385444;32;19964;-69
2022/08/25 05:30:39;;;;;;;4.43;2.95;;;18.40;99.90;;;;;;4390062;32;20021;-68
2022/08/25 05:33:06;;;;;;;5.35;3.03;;;18.40;99.90;;;;;;4390089;32;19963;-69
2022/08/25 05:35:32;;;;;;;5.87;3.10;;;18.50;99.90;;;;;;4382665;32;19990;-68
2022/08/25 05:38:00;;;;;;;4.12;3.00;;;18.50;99.90;;;;;;4380639;32;19976;-68
2022/08/25 05:40:28;;;;;;;4.12;3.40;;;18.50;99.90;;;;;;4384378;32;19996;-69
2022/08/25 05:42:55;;;;;;;6.78;3.40;;;18.30;99.90;;;;;;4378446;32;19980;-70
2022/08/25 05:45:22;;;;;;;8.82;4.10;;;18.30;99.90;;;;;;4381456;32;19958;-68
2022/08/25 05:47:50;;;;;;;7.55;3.78;;;18.30;99.90;;;;;;4380956;32;19977;-69
2022/08/25 05:50:17;;;;;;;6.72;3.72;;;18.40;99.90;;;;;;4376429;32;20004;-68
2022/08/25 05:52:44;;;;;;;4.75;3.75;;;18.50;99.90;;;;;;4375258;32;19993;-68
2022/08/25 05:55:14;;;;;;;4.53;3.00;;;18.70;99.90;;;;;;4382817;32;19963;-69
2022/08/25 05:57:41;;;;;;;8.55;3.28;;;19.00;99.90;;;;;;4382272;32;19964;-69
2022/08/25 06:00:08;;;;;;;3.83;2.92;;;19.10;99.90;;;;;;4379465;32;19964;-69
2022/08/25 06:02:42;;;;;;;4.45;2.92;;;19.20;99.90;;;;;;4387872;32;19958;-69
2022/08/25 06:05:11;;;;;;;3.78;2.72;;;19.30;99.90;;;;;;4389368;32;19997;-69
2022/08/25 06:07:38;;;;;;;4.15;2.70;;;19.40;99.90;;;;;;4389648;32;19975;-69
2022/08/25 06:10:06;;;;;;;5.62;4.00;;;19.70;99.90;;;;;;4375456;32;20070;-69
2022/08/25 06:12:35;;;;;;;5.70;3.70;;;19.80;99.90;;;;;;4374720;33;19989;-69
2022/08/25 06:15:02;;;;;;;8.48;4.00;;;20.00;99.90;;;;;;4372948;32;19964;-69
2022/08/25 06:17:29;;;;;;;5.03;4.20;;;20.20;99.90;;;;;;4374065;32;19967;-69
2022/08/25 06:19:56;;;;;;;6.90;4.07;;;20.60;99.90;;;;;;4374728;33;20049;-69
2022/08/25 06:22:24;;;;;;;5.62;4.20;;;21.40;99.90;;;;;;4385584;32;19993;-69
2022/08/25 06:24:52;;;;;;;8.27;4.20;;;22.20;99.90;;;;;;4378594;32;19964;-69
2022/08/25 06:27:19;;;;;;;5.55;4.07;;;23.30;99.90;;;;;;4385086;32;20010;-69
2022/08/25 06:29:47;;;;;;;5.25;3.95;;;24.20;99.90;;;;;;4381025;32;20083;-69
2022/08/25 06:32:13;;;;;;;5.97;3.50;;;25.00;99.90;;;;;;4378006;32;20142;-70
2022/08/25 06:34:40;;;;;;;4.82;3.97;;;25.70;99.50;;;;;;4380221;32;19975;-69
2022/08/25 06:37:07;;;;;;;5.30;3.80;;;27.10;95.80;;;;;;4384827;32;20054;-69
2022/08/25 06:39:34;;;;;;;7.22;3.65;;;27.00;94.40;;;;;;4374538;33;19979;-69
2022/08/25 06:42:00;;;;;;;7.47;4.25;;;28.00;92.60;;;;;;4374566;33;19961;-71
2022/08/25 06:44:27;;;;;;;6.93;3.35;;;28.90;86.20;;;;;;4388653;32;19992;-71
2022/08/25 06:46:56;;;;;;;5.68;3.95;;;30.40;80.60;;;;;;4388419;32;19979;-72
2022/08/25 06:49:26;;;;;;;10.20;5.43;;;31.00;77.70;;;;;;4385287;32;19969;-72
2022/08/25 06:51:53;;;;;;;8.65;5.57;;;31.60;74.10;;;;;;4372371;32;20000;-72
2022/08/25 06:54:20;;;;;;;10.15;5.82;;;32.40;70.50;;;;;;4388400;32;20032;-72
2022/08/25 06:56:47;;;;;;;6.05;3.65;;;32.80;69.00;;;;;;4385246;32;19961;-72
2022/08/25 06:59:13;;;;;;;4.97;3.45;;;32.70;67.90;;;;;;4382001;32;19978;-71
2022/08/25 07:01:40;;;;;;;7.85;3.10;;;31.90;70.50;;;;;;4382072;32;20075;-73
2022/08/25 07:04:08;;;;;;;4.37;3.10;;;31.90;67.30;;;;;;4381619;32;19984;-73
2022/08/25 07:06:35;;;;;;;5.15;3.20;;;32.20;68.30;;;;;;4391532;32;20043;-73
2022/08/25 07:09:05;;;;;;;5.55;3.17;;;32.10;68.30;;;;;;4389072;32;20115;-72
2022/08/25 07:11:33;;;;;;;5.22;3.10;;;32.70;66.30;;;;;;4377170;32;19975;-73
2022/08/25 07:14:01;;;;;;;6.90;3.00;;;32.50;66.60;;;;;;4382235;32;19973;-73
2022/08/25 07:16:28;;;;;;;4.10;2.95;;;32.80;66.60;;;;;;4378368;32;19981;-72
2022/08/25 07:18:56;;;;;;;6.65;3.00;;;32.90;65.90;;;;;;4380543;32;19981;-72
2022/08/25 07:21:24;;;;;;;3.12;2.58;;;32.80;67.10;;;;;;4386821;32;20120;-70
2022/08/25 07:23:51;;;;;;;2.72;2.50;;;32.00;68.30;;;;;;4391095;32;20008;-72
2022/08/25 07:26:20;;;;;;;3.08;2.65;;;31.70;66.60;;;;;;4385861;32;20029;-72
2022/08/25 07:28:47;;;;;;;3.17;2.67;;;32.20;67.00;;;;;;4384995;32;20012;-72
2022/08/25 07:31:14;;;;;;;4.75;2.35;;;32.30;66.70;;;;;;4384061;32;19957;-72
2022/08/25 07:35:14;;;;;;;3.37;2.65;;;32.40;66.00;;;;;;4383796;32;19974;-72
2022/08/25 07:36:30;;;;;;;5.68;2.50;;;32.30;66.20;;;;;;4377926;32;20043;-72
2022/08/25 07:38:57;;;;;;;3.70;2.40;;;31.70;66.40;;;;;;4376745;32;20034;-71
2022/08/25 07:41:23;;;;;;;3.35;2.60;;;31.60;65.50;;;;;;4376884;32;19990;-72
2022/08/25 07:43:50;;;;;;;5.60;2.70;;;32.00;64.30;;;;;;4384266;32;20000;-72
2022/08/25 07:46:17;;;;;;;4.18;2.55;;;32.10;62.90;;;;;;4385052;32;19996;-72
2022/08/25 07:48:44;;;;;;;5.57;2.75;;;32.30;64.50;;;;;;4379434;32;19994;-72
2022/08/25 07:51:13;;;;;;;6.93;3.05;;;32.50;65.50;;;;;;4383750;32;19964;-72
2022/08/25 07:53:41;;;;;;;9.43;3.17;;;32.10;66.70;;;;;;4385332;32;19998;-72
2022/08/25 07:56:10;;;;;;;16.17;4.10;;;32.00;67.40;;;;;;4376921;32;19999;-72
2022/08/25 07:58:37;;;;;;;10.50;3.55;;;32.30;67.00;;;;;;4384821;32;20070;-72
2022/08/25 08:01:04;;;;;;;5.85;2.75;;;32.00;67.00;;;;;;4381406;32;20001;-72
2022/08/25 08:03:32;;;;;;;6.22;2.95;;;32.10;63.80;;;;;;4380887;32;19992;-72
2022/08/25 08:05:59;;;;;;;4.00;2.40;;;32.80;66.30;;;;;;4382926;32;19993;-72
2022/08/25 08:08:26;;;;;;;5.97;2.70;;;32.70;66.40;;;;;;4375792;32;19965;-72
2022/08/25 08:10:54;;;;;;;5.53;2.70;;;32.90;65.50;;;;;;4381661;32;19995;-72
2022/08/25 08:13:22;;;;;;;4.07;2.78;;;33.20;65.80;;;;;;4376866;32;19990;-72
2022/08/25 08:15:49;;;;;;;3.80;2.70;;;33.20;64.30;;;;;;4388250;32;20001;-72
2022/08/25 08:18:16;;;;;;;5.80;3.25;;;33.60;64.90;;;;;;4387184;32;19989;-71
2022/08/25 08:20:44;;;;;;;4.40;2.60;;;33.60;64.40;;;;;;4372646;32;20034;-72
2022/08/25 08:23:11;;;;;;;3.85;2.35;;;33.60;64.30;;;;;;4369890;32;19990;-72
2022/08/25 08:25:38;;;;;;;2.87;2.37;;;33.70;62.80;;;;;;4379905;32;20074;-71
2022/08/25 08:28:06;;;;;;;5.10;3.00;;;33.60;63.60;;;;;;4378811;32;20064;-71
2022/08/25 08:30:33;;;;;;;4.68;2.75;;;33.40;65.10;;;;;;4387804;32;19990;-71
2022/08/25 08:32:59;;;;;;;5.65;2.60;;;33.50;63.60;;;;;;4382497;32;20014;-71
2022/08/25 08:35:26;;;;;;;6.40;2.60;;;33.60;63.10;;;;;;4389156;32;19964;-71
2022/08/25 08:37:53;;;;;;;4.03;2.80;;;33.60;61.20;;;;;;4380996;32;19996;-71
2022/08/25 08:40:20;;;;;;;5.30;2.72;;;33.90;63.80;;;;;;4382431;32;19992;-71
2022/08/25 08:43:01;;;;;;;6.60;2.97;;;34.30;63.50;;;;;;4378135;32;19992;-71
2022/08/25 08:45:36;;;;;;;4.15;2.40;;;34.50;63.10;;;;;;4382783;32;19964;-71
2022/08/25 08:48:17;;;;;;;4.50;2.65;;;34.20;62.60;;;;;;4382872;32;19968;-71
2022/08/25 08:50:56;;;;;;;3.65;2.60;;;34.40;61.70;;;;;;4378875;32;19982;-71
2022/08/25 08:53:30;;;;;;;5.30;3.17;;;35.00;59.90;;;;;;4388572;32;20047;-73
2022/08/25 08:56:00;;;;;;;3.65;2.75;;;34.90;60.30;;;;;;4382147;32;20772;-71
2022/08/25 08:58:36;;;;;;;5.23;2.80;;;35.30;60.30;;;;;;4375979;32;19998;-68
2022/08/25 09:01:04;;;;;;;3.00;2.53;;;35.40;59.70;;;;;;4372221;32;19971;-69
2022/08/25 09:03:38;;;;;;;3.30;2.70;;;35.40;60.30;;;;;;4383898;32;20141;-68
2022/08/25 09:06:08;;;;;;;3.78;2.70;;;34.60;61.30;;;;;;4383790;32;20017;-68
2022/08/25 09:08:37;;;;;;;3.92;2.72;;;35.30;59.70;;;;;;4383637;32;19997;-68
2022/08/25 09:11:13;;;;;;;3.10;2.40;;;35.70;59.00;;;;;;4385799;32;19964;-68
2022/08/25 09:13:56;;;;;;;4.72;2.33;;;36.20;58.50;;;;;;4379083;32;20004;-68
2022/08/25 09:19:30;;;;;;;5.10;2.75;;;36.30;58.00;;;;;;4379903;32;19978;-68
2022/08/25 09:22:08;;;;;;;2.90;2.60;;;36.70;58.40;;;;;;4379552;32;19961;-68
2022/08/25 09:24:48;;;;;;;4.00;2.42;;;36.80;53.80;;;;;;4372250;32;20121;-68
2022/08/25 09:27:23;;;;;;;4.03;2.80;;;37.90;54.20;;;;;;4377603;32;19997;-68
2022/08/25 09:29:59;;;;;;;4.82;2.67;;;38.40;53.80;;;;;;4380186;32;20021;-68
2022/08/25 09:32:28;;;;;;;3.00;2.40;;;39.00;53.10;;;;;;4380585;32;19982;-68
2022/08/25 09:34:55;;;;;;;2.90;2.70;;;38.40;53.10;;;;;;4384789;32;19973;-68
2022/08/25 09:37:23;;;;;;;4.22;2.67;;;38.90;53.80;;;;;;4376106;32;19995;-68
2022/08/25 09:39:50;;;;;;;3.37;2.50;;;39.30;52.80;;;;;;4380736;32;19988;-68
2022/08/25 09:42:19;;;;;;;4.95;2.60;;;40.00;50.80;;;;;;4386315;32;19962;-68
2022/08/25 09:44:47;;;;;;;3.08;2.33;;;40.30;50.50;;;;;;4376170;32;20015;-68
2022/08/25 09:47:21;;;;;;;3.35;2.53;;;40.40;50.50;;;;;;4381073;32;20032;-69
2022/08/25 09:49:56;;;;;;;2.92;2.50;;;39.90;49.20;;;;;;4386099;32;20123;-69
2022/08/25 09:52:30;;;;;;;3.28;2.37;;;39.90;51.20;;;;;;4373602;32;20001;-68
2022/08/25 09:54:59;;;;;;;5.10;2.40;;;41.10;47.00;;;;;;4377377;32;19984;-68
2022/08/25 09:57:33;;;;;;;3.17;2.67;;;40.80;49.20;;;;;;4387824;32;20010;-68
2022/08/25 10:00:12;;;;;;;5.07;2.53;;;41.50;48.90;;;;;;4385313;32;20043;-68
2022/08/25 10:02:39;;;;;;;4.43;2.62;;;42.50;47.00;;;;;;4378337;32;19981;-68
2022/08/25 10:05:21;;;;;;;2.85;2.58;;;42.40;47.30;;;;;;4383356;32;20103;-68
2022/08/25 10:07:52;;;;;;;3.65;2.50;;;43.00;46.80;;;;;;4378465;32;19991;-69
2022/08/25 10:10:28;;;;;;;2.85;2.33;;;44.20;43.70;;;;;;4370565;32;20080;-68
2022/08/25 10:12:57;;;;;;;3.83;2.78;;;43.20;45.70;;;;;;4375803;32;19969;-69
2022/08/25 10:15:26;;;;;;;3.33;2.65;;;43.30;45.70;;;;;;4387625;32;19995;-68
2022/08/25 10:17:53;;;;;;;4.50;2.40;;;43.90;45.20;;;;;;4384378;32;19991;-69
2022/08/25 10:20:24;;;;;;;3.70;2.67;;;44.80;43.90;;;;;;4389829;32;20120;-68
2022/08/25 10:22:52;;;;;;;2.58;2.37;;;43.10;41.40;;;;;;4385668;32;19986;-68
2022/08/25 10:25:26;;;;;;;3.67;2.58;;;43.00;44.60;;;;;;4384105;32;19962;-68
2022/08/25 10:28:03;;;;;;;3.30;2.58;;;43.60;44.90;;;;;;4382155;32;20024;-68
2022/08/25 10:30:36;;;;;;;3.12;2.45;;;43.90;44.80;;;;;;4382738;32;20023;-68
2022/08/25 10:33:16;;;;;;;4.03;2.50;;;44.50;43.00;;;;;;4387763;32;19969;-69
2022/08/25 10:35:57;;;;;;;3.40;2.40;;;45.50;41.80;;;;;;4382900;32;19990;-69
2022/08/25 10:38:35;;;;;;;3.72;2.72;;;45.60;42.50;;;;;;4387697;32;19977;-69
2022/08/25 10:41:15;;;;;;;2.90;2.60;;;46.10;41.90;;;;;;4392147;32;19973;-69
2022/08/25 10:43:49;;;;;;;4.25;3.00;;;45.40;41.70;;;;;;4386856;32;19999;-69
2022/08/25 10:46:23;;;;;;;3.80;2.80;;;45.80;41.00;;;;;;4383800;32;19966;-69
2022/08/25 10:48:58;;;;;;;4.18;2.72;;;46.90;40.90;;;;;;4383655;32;19986;-68
2022/08/25 10:51:38;;;;;;;3.58;2.65;;;46.00;41.30;;;;;;4378592;32;19964;-69
2022/08/25 10:54:14;;;;;;;3.20;2.45;;;46.30;40.40;;;;;;4382555;32;20133;-69
2022/08/25 10:56:43;;;;;;;3.25;2.60;;;43.90;38.80;;;;;;4387750;32;19992;-69
2022/08/25 10:59:38;;;;;;;4.72;2.80;;;45.50;41.20;;;;;;4373762;32;19990;-69
2022/08/25 11:02:29;;;;;;;3.15;2.50;;;44.70;41.40;;;;;;4384498;32;19971;-69
2022/08/25 11:05:02;;;;;;;3.62;2.62;;;45.70;42.20;;;;;;4375740;32;19961;-69
2022/08/25 11:07:36;;;;;;;3.17;2.72;;;44.00;43.20;;;;;;4378912;32;19995;-69
2022/08/25 11:10:08;;;;;;;4.22;2.60;;;45.50;42.10;;;;;;4378286;32;19993;-70
2022/08/25 11:12:38;;;;;;;3.70;2.62;;;46.70;40.20;;;;;;4391902;32;19964;-69
2022/08/25 11:15:11;;;;;;;3.58;2.50;;;46.50;40.00;;;;;;4388321;32;20029;-69
2022/08/25 11:17:44;;;;;;;2.80;2.60;;;46.20;41.00;;;;;;4377152;32;20103;-69
2022/08/25 11:20:16;;;;;;;3.25;2.67;;;45.00;41.30;;;;;;4382994;32;19973;-69
2022/08/25 11:22:50;;;;;;;3.20;2.90;;;45.60;41.10;;;;;;4391069;32;20137;-69
2022/08/25 11:25:20;;;;;;;2.70;2.50;;;45.80;39.90;;;;;;4378191;32;20002;-69
2022/08/25 11:27:55;;;;;;;2.62;2.42;;;45.40;40.20;;;;;;4377454;32;20002;-69
2022/08/25 11:30:21;;;;;;;4.43;2.85;;;45.40;39.80;;;;;;4384621;32;20008;-69
2022/08/25 11:32:51;;;;;;;4.15;2.62;;;45.70;40.40;;;;;;4376854;32;20019;-69
2022/08/25 11:35:20;;;;;;;2.97;2.72;;;46.30;39.00;;;;;;4386247;32;20063;-69
2022/08/25 11:38:04;;;;;;;3.37;2.83;;;46.00;38.40;;;;;;4379196;32;20070;-69
2022/08/25 11:41:09;;;;;;;4.78;3.08;;;45.50;37.60;;;;;;4380669;32;20131;-69
2022/08/25 11:44:01;;;;;;;4.90;3.08;;;47.20;38.30;;;;;;4321501;33;20010;-69
2022/08/25 11:46:44;;;;;;;4.18;3.00;;;46.20;37.80;;;;;;4378193;32;19960;-68
2022/08/25 11:49:28;;;;;;;3.67;2.97;;;43.60;40.40;;;;;;4389060;32;20002;-69
2022/08/25 11:51:55;;;;;;;3.47;2.60;;;44.00;41.90;;;;;;4372770;32;19998;-69
2022/08/25 11:54:27;;;;;;;3.03;2.83;;;45.00;41.20;;;;;;4382892;32;20000;-69
2022/08/25 11:56:58;;;;;;;4.45;2.87;;;43.90;40.10;;;;;;4385233;32;20046;-69
2022/08/25 12:00:02;;;;;;;3.15;2.75;;;43.40;42.70;;;;;;4384604;32;19994;-69
2022/08/25 12:02:37;;;;;;;3.78;2.87;;;42.90;43.30;;;;;;4380369;32;19961;-69
2022/08/25 12:05:07;;;;;;;4.15;2.62;;;43.60;41.80;;;;;;4380176;32;19992;-69
2022/08/25 12:11:05;;;;;;;5.50;3.22;;;41.80;43.60;;;;;;4373342;32;19995;-69
2022/08/25 12:13:44;;;;;;;3.15;2.58;;;41.70;42.90;;;;;;4372778;32;20107;-69
2022/08/25 12:16:41;;;;;;;3.08;2.75;;;40.90;44.10;;;;;;4380703;32;19997;-69
2022/08/25 12:19:25;;;;;;;4.03;3.10;;;39.50;45.50;;;;;;4388388;32;19989;-69
2022/08/25 12:21:52;;;;;;;3.47;2.83;;;40.20;44.40;;;;;;4390432;32;20127;-69
2022/08/25 12:24:21;;;;;;;4.75;2.60;;;39.90;46.10;;;;;;4378001;32;20000;-70
2022/08/25 12:26:55;;;;;;;3.47;2.97;;;39.30;46.00;;;;;;4376050;32;19962;-69
2022/08/25 12:29:32;;;;;;;5.07;3.20;;;38.40;48.00;;;;;;4377381;32;20007;-69
2022/08/25 12:32:21;;;;;;;4.97;3.53;;;37.90;45.20;;;;;;4383981;32;19992;-68
2022/08/25 12:35:09;;;;;;;5.30;2.90;;;37.80;46.70;;;;;;4369354;32;20063;-68
2022/08/25 12:37:54;;;;;;;4.32;3.08;;;37.30;50.10;;;;;;4379111;32;19966;-69
2022/08/25 12:40:26;;;;;;;6.10;3.22;;;37.00;48.70;;;;;;4384607;32;20063;-69
2022/08/25 12:43:12;;;;;;;5.45;3.30;;;36.50;49.00;;;;;;4383972;32;20007;-69
2022/08/25 12:45:42;;;;;;;3.78;3.35;;;36.60;47.70;;;;;;4390332;32;20124;-69
2022/08/25 12:48:46;;;;;;;6.28;3.30;;;35.70;48.90;;;;;;4385843;32;20163;-69
2022/08/25 12:51:18;;;;;;;5.20;3.20;;;35.80;51.70;;;;;;4384450;32;19996;-69
2022/08/25 12:53:49;;;;;;;4.40;3.30;;;35.70;51.20;;;;;;4378263;32;19976;-69
2022/08/25 12:56:24;;;;;;;3.30;3.00;;;35.20;49.60;;;;;;4374812;32;19997;-69
2022/08/25 12:58:56;;;;;;;3.58;2.83;;;35.30;50.40;;;;;;4385871;32;20078;-69
2022/08/25 13:01:32;;;;;;;3.97;3.30;;;35.30;50.20;;;;;;4375427;32;19990;-69
2022/08/25 13:04:22;;;;;;;6.55;3.20;;;35.10;50.50;;;;;;4379034;32;19974;-69
2022/08/25 13:07:04;;;;;;;4.97;3.05;;;35.40;52.20;;;;;;4375514;32;19977;-69
2022/08/25 13:10:02;;;;;;;3.75;2.92;;;35.00;51.90;;;;;;4384340;32;20004;-69
2022/08/25 13:12:35;;;;;;;5.82;3.45;;;35.00;50.70;;;;;;4378005;32;19998;-69